Happy Valentine's Day! 

Flight Track Log - Related Links

Times and Time Zones

All times are in EDT time to prevent confusion due to time zone crossing. See the SKW5314 flight status page for this flight to view local times or setup timezone preferences in your user account.


Time Position Orientation Groundspeed Altitude Reporting Facility
EDT Latitude Longitude Course Direction KTS MPH feet Rate Location/Type
Fri 01:20:22 PM 34.4233 -119.9067 267° West 163 188 1,800  Level Los Angeles Center
Fri 01:21:04 PM 34.3894 -119.9231 202° Southwest 224 258 2,900 1,500 Climbing Los Angeles Center
Fri 01:22:06 PM 34.3414 -119.8911 151° Southeast 208 239 4,400 1,500 Climbing Los Angeles Center
Fri 01:23:08 PM 34.2964 -119.8503 143° Southeast 206 237 6,000 1,694 Climbing Los Angeles Center
Fri 01:24:10 PM 34.2825 -119.7881 105° East 195 224 7,900 1,839 Climbing Los Angeles Center
Fri 01:25:12 PM 34.2669 -119.7300 108° East 185 213 9,800 1,548 Climbing Los Angeles Center
Fri 01:26:14 PM 34.2528 -119.6725 107° East 180 207 11,100 677 Climbing Los Angeles Center
Fri 01:27:16 PM 34.2308 -119.5875 107° East 211 243 11,200  Climbing Los Angeles Center
Fri 01:28:18 PM 34.2153 -119.5147 104° East 224 258 11,100 -48 Descending Los Angeles Center
Fri 01:29:20 PM 34.2017 -119.4431 103° East 219 252 11,100  Level Los Angeles Center
Fri 01:30:22 PM 34.1881 -119.3703 103° East 222 255 11,100  Level Los Angeles Center
Fri 01:31:24 PM 34.1728 -119.2986 104° East 219 252 11,100  Level Los Angeles Center
Fri 01:32:27 PM 34.1536 -119.2144 105° East 218 251 11,100  Level Los Angeles Center
Fri 01:33:29 PM 34.1375 -119.1447 106° East 217 250 11,100  Level Los Angeles Center
Fri 01:34:31 PM 34.1214 -119.0744 105° East 217 250 11,100  Level Los Angeles Center
Fri 01:35:33 PM 34.1031 -119.0042 107° East 220 253 11,100  Level Los Angeles Center
Fri 01:36:35 PM 34.0831 -118.9339 109° East 221 254 11,100 -194 Level Los Angeles Center
Fri 01:37:37 PM 34.0633 -118.8617 108° East 227 261 10,700 -484 Descending Los Angeles Center
Fri 01:38:39 PM 34.0389 -118.7706 108° East 243 280 10,100 -290 Descending Los Angeles Center
Fri 01:39:41 PM 34.0306 -118.6919 97° East 216 249 10,100 -48 Level Los Angeles Center
Fri 01:40:43 PM 34.0250 -118.6206 95° East 214 246 10,000 -581 Descending Los Angeles Center
Fri 01:41:45 PM 34.0164 -118.5481 98° East 216 249 8,900 -1,248 Descending Los Angeles Center
Fri 01:42:48 PM 34.0092 -118.4725 97° East 210 242 7,400 -1,344 Descending Los Angeles Center
Fri 01:43:50 PM 34.0136 -118.4119 85° East 215 247 6,100 -1,548 Descending Los Angeles Center
Fri 01:44:52 PM 34.0272 -118.3242 79° East 220 253 4,200 -968 Descending Los Angeles Center
Fri 01:45:54 PM 34.0389 -118.2503 79° East 223 257 4,100 -48 Descending Los Angeles Center
Fri 01:46:56 PM 34.0519 -118.1781 78° East 221 254 4,100 -48 Level Los Angeles Center
Fri 01:47:58 PM 34.0542 -118.1058 88° East 222 255 4,000 -74 Descending Los Angeles Center
Fri 01:48:17 PM 34.0333 -118.1000 167° South 230 265 4,000 -987 Level Southern California TRACON
Fri 01:49:17 PM 33.9833 -118.1000 180° South 216 249 2,700 -743 Descending Southern California TRACON
Fri 01:50:02 PM 33.9792 -118.1422 263° West 202 232 2,700  Level Los Angeles Center
Fri 01:51:04 PM 33.9717 -118.2183 263° West 194 223 2,700 -242 Level Los Angeles Center
Fri 01:52:06 PM 33.9653 -118.2803 263° West 192 221 2,200 -629 Descending Los Angeles Center
Fri 01:53:08 PM 33.9606 -118.3303 264° West 166 191 1,400 -726 Descending Los Angeles Center
Fri 01:54:10 PM 33.9567 -118.3719 264° West 139 160 700 -581 Descending Los Angeles Center
Fri 01:55:12 PM 33.9511 -118.4167 261° West 131 151 200 -484 Descending Los Angeles Center

Login

Don't have an account? Register now (free) for customized features, flight alerts, and more!